Time;durP1;ratioP1;P1;durP2;ratioP2;P2;SDS_P1;SDS_P2;PMS_P1;PMS_P2;Temp;Humidity;BMP_temperature;BMP_pressure;BME280_temperature;BME280_humidity;BME280_pressure;Samples;Min_cycle;Max_cycle;Signal;HPM_P1;HPM_P2
2021/08/22 00:00:24;;;;;;;6.22;4.63;;;19.70;96.30;;;;;;5019130;28;20292;-85
2021/08/22 00:02:50;;;;;;;5.38;4.82;;;19.70;95.40;;;;;;5015472;28;20847;-84
2021/08/22 00:05:15;;;;;;;5.88;4.72;;;19.70;96.10;;;;;;5016216;28;20224;-84
2021/08/22 00:07:41;;;;;;;5.95;5.03;;;19.80;95.20;;;;;;5019391;28;20220;-85
2021/08/22 00:10:07;;;;;;;5.20;4.70;;;19.70;94.30;;;;;;5016161;28;20235;-85
2021/08/22 00:12:33;;;;;;;6.53;4.13;;;19.70;95.40;;;;;;5017274;28;20280;-85
2021/08/22 00:14:58;;;;;;;6.10;4.10;;;19.80;95.00;;;;;;5012749;28;20180;-84
2021/08/22 00:17:24;;;;;;;4.88;4.18;;;19.90;94.20;;;;;;5015723;28;20232;-85
2021/08/22 00:19:50;;;;;;;4.97;4.47;;;19.90;92.20;;;;;;5016436;28;20209;-84
2021/08/22 00:22:16;;;;;;;7.13;4.40;;;20.00;93.00;;;;;;5019030;28;20228;-84
2021/08/22 00:24:41;;;;;;;6.50;5.00;;;19.90;93.70;;;;;;5019991;28;20213;-84
2021/08/22 00:27:07;;;;;;;7.30;4.47;;;20.00;91.80;;;;;;5014559;28;20746;-84
2021/08/22 00:29:33;;;;;;;4.47;4.07;;;19.90;91.80;;;;;;5028687;28;20185;-85
2021/08/22 00:31:59;;;;;;;5.70;4.70;;;19.80;92.70;;;;;;5018484;28;20228;-85
2021/08/22 00:34:24;;;;;;;5.28;4.43;;;19.90;92.50;;;;;;5019716;28;20277;-84
2021/08/22 00:36:50;;;;;;;4.93;4.43;;;19.90;91.60;;;;;;5021859;28;20189;-83
2021/08/22 00:39:16;;;;;;;5.25;4.13;;;20.00;90.80;;;;;;5022964;28;20213;-84
2021/08/22 00:41:43;;;;;;;4.47;4.05;;;20.10;90.30;;;;;;5018991;28;20400;-85
2021/08/22 00:44:08;;;;;;;5.05;4.18;;;20.20;88.70;;;;;;5021148;28;20221;-84
2021/08/22 00:46:35;;;;;;;4.15;3.70;;;20.30;87.30;;;;;;5019314;28;20209;-85
2021/08/22 00:49:02;;;;;;;6.13;4.30;;;20.30;87.90;;;;;;5016797;28;20189;-85
2021/08/22 00:51:28;;;;;;;4.85;4.45;;;20.40;88.10;;;;;;5016986;28;20267;-84
2021/08/22 00:53:54;;;;;;;4.78;4.28;;;20.50;88.00;;;;;;5021971;28;20197;-85
2021/08/22 00:56:19;;;;;;;4.95;4.53;;;20.60;87.40;;;;;;5025030;28;20225;-85
2021/08/22 00:58:46;;;;;;;4.35;3.95;;;20.90;86.70;;;;;;5020771;28;20266;-84
2021/08/22 01:01:20;;;;;;;4.82;4.28;;;21.00;86.50;;;;;;5029005;28;20420;-84
2021/08/22 01:03:52;;;;;;;5.05;4.35;;;21.10;84.60;;;;;;5020055;28;20230;-85
2021/08/22 01:06:37;;;;;;;4.82;4.32;;;21.40;85.60;;;;;;5021434;28;20225;-84
2021/08/22 01:09:09;;;;;;;4.95;4.35;;;21.50;85.10;;;;;;5021705;28;20170;-85
2021/08/22 01:11:37;;;;;;;5.47;4.30;;;21.70;83.80;;;;;;5022114;28;20220;-85
2021/08/22 01:14:14;;;;;;;4.90;3.83;;;21.80;82.50;;;;;;5022429;28;20209;-85
2021/08/22 01:16:49;;;;;;;5.55;4.40;;;21.80;83.40;;;;;;5019823;28;20196;-85
2021/08/22 01:19:23;;;;;;;4.43;4.03;;;21.70;81.90;;;;;;5015624;28;20214;-84
2021/08/22 01:21:50;;;;;;;4.97;4.07;;;21.70;83.60;;;;;;5016995;28;20217;-85
2021/08/22 01:24:20;;;;;;;6.95;4.45;;;21.60;82.70;;;;;;5019261;28;20201;-85
2021/08/22 01:26:47;;;;;;;4.57;4.15;;;21.60;83.10;;;;;;5019704;28;20696;-85
2021/08/22 01:29:14;;;;;;;4.68;4.28;;;21.60;82.30;;;;;;5019194;28;20201;-85
2021/08/22 01:31:46;;;;;;;4.88;4.47;;;21.60;82.10;;;;;;5016184;28;20212;-85
2021/08/22 01:34:14;;;;;;;4.38;3.97;;;21.50;83.90;;;;;;5018780;28;20189;-85
2021/08/22 01:36:41;;;;;;;4.57;4.18;;;21.40;82.80;;;;;;5014819;28;20660;-84
2021/08/22 01:39:08;;;;;;;5.03;4.30;;;21.30;83.40;;;;;;5015548;28;20241;-84
2021/08/22 01:41:35;;;;;;;5.88;4.28;;;21.30;83.80;;;;;;5017462;28;20212;-84
2021/08/22 01:44:03;;;;;;;5.60;4.35;;;21.30;83.40;;;;;;5020373;28;20217;-85
2021/08/22 01:46:32;;;;;;;5.88;3.78;;;21.20;83.10;;;;;;5017549;28;20217;-85
2021/08/22 01:49:00;;;;;;;4.28;3.78;;;21.10;83.80;;;;;;5015203;28;20189;-84
2021/08/22 01:51:27;;;;;;;5.15;3.80;;;21.20;84.40;;;;;;5020093;28;20632;-84
2021/08/22 01:53:55;;;;;;;4.68;4.20;;;21.20;83.90;;;;;;5018355;28;20285;-85
2021/08/22 01:56:21;;;;;;;4.32;3.92;;;21.00;84.50;;;;;;5014783;28;20203;-85
2021/08/22 01:58:47;;;;;;;4.30;3.90;;;21.00;84.00;;;;;;5011960;28;20699;-85
2021/08/22 02:01:14;;;;;;;5.30;4.05;;;20.90;84.20;;;;;;5025362;28;20198;-84
2021/08/22 02:03:49;;;;;;;3.83;3.47;;;20.80;84.50;;;;;;5032356;28;20230;-85
2021/08/22 02:06:20;;;;;;;5.43;3.72;;;20.80;84.20;;;;;;5035810;28;20219;-85
2021/08/22 02:08:51;;;;;;;3.90;3.50;;;20.80;84.50;;;;;;5021820;28;20191;-85
2021/08/22 02:11:30;;;;;;;9.75;3.42;;;20.70;84.50;;;;;;5023454;28;20341;-85
2021/08/22 02:13:56;;;;;;;3.67;3.20;;;20.60;86.00;;;;;;5025540;28;20197;-84
2021/08/22 02:16:28;;;;;;;4.55;3.40;;;20.40;86.90;;;;;;5023090;28;20196;-85
2021/08/22 02:18:56;;;;;;;5.72;3.58;;;20.20;87.00;;;;;;5020052;28;20206;-84
2021/08/22 02:21:22;;;;;;;4.60;3.28;;;20.00;88.00;;;;;;5022344;28;20304;-84
2021/08/22 02:23:50;;;;;;;4.13;3.72;;;20.00;88.00;;;;;;5025317;28;20185;-84
2021/08/22 02:26:18;;;;;;;3.50;3.20;;;20.00;88.20;;;;;;5020132;28;20244;-84
2021/08/22 02:28:44;;;;;;;3.55;3.25;;;20.10;88.20;;;;;;5025017;28;20194;-84
2021/08/22 02:31:13;;;;;;;3.50;3.20;;;20.00;88.80;;;;;;5022835;28;20250;-85
2021/08/22 02:33:39;;;;;;;4.28;3.50;;;20.00;88.30;;;;;;5016191;28;20644;-85
2021/08/22 02:36:04;;;;;;;5.00;3.30;;;20.10;88.00;;;;;;5013192;28;20223;-84
2021/08/22 02:38:30;;;;;;;4.30;3.20;;;20.10;87.80;;;;;;5023592;28;20241;-85
2021/08/22 02:40:56;;;;;;;4.10;3.10;;;20.10;88.50;;;;;;5021224;28;20209;-84
2021/08/22 02:43:21;;;;;;;5.65;3.45;;;20.10;87.80;;;;;;5023066;28;20191;-84
2021/08/22 02:45:47;;;;;;;3.75;3.40;;;20.20;87.50;;;;;;5023271;28;20676;-87
2021/08/22 02:48:13;;;;;;;3.60;3.30;;;20.20;87.90;;;;;;5022921;28;20213;-85
2021/08/22 02:50:40;;;;;;;3.90;3.60;;;20.20;87.80;;;;;;5004608;28;20201;-84
2021/08/22 02:53:06;;;;;;;5.75;3.63;;;20.20;88.50;;;;;;5021518;28;20209;-84
2021/08/22 02:55:32;;;;;;;3.67;3.38;;;19.90;89.50;;;;;;5023855;28;20192;-84
2021/08/22 02:57:58;;;;;;;3.95;3.50;;;19.80;89.70;;;;;;5021791;28;20202;-84
2021/08/22 03:00:24;;;;;;;6.10;3.60;;;19.90;89.00;;;;;;5019940;28;20564;-85
2021/08/22 03:02:49;;;;;;;5.47;3.53;;;20.00;88.40;;;;;;5021871;28;20222;-84
2021/08/22 03:05:15;;;;;;;3.83;3.45;;;20.00;89.00;;;;;;5020951;28;20210;-85
2021/08/22 03:07:41;;;;;;;5.43;3.80;;;19.90;88.70;;;;;;5023385;28;20202;-85
2021/08/22 03:10:07;;;;;;;4.20;3.80;;;20.00;89.50;;;;;;5024997;28;20191;-84
2021/08/22 03:12:33;;;;;;;4.22;3.85;;;20.00;88.70;;;;;;5022687;28;20251;-84
2021/08/22 03:14:59;;;;;;;4.40;3.58;;;20.10;88.50;;;;;;5023769;28;20202;-84
2021/08/22 03:17:24;;;;;;;4.53;4.10;;;20.00;87.90;;;;;;5030602;28;20273;-84
2021/08/22 03:19:51;;;;;;;6.72;4.28;;;19.90;89.00;;;;;;5017892;28;20217;-85
2021/08/22 03:22:18;;;;;;;6.07;4.47;;;19.80;89.30;;;;;;5020179;28;20221;-85
2021/08/22 03:24:44;;;;;;;4.57;4.05;;;19.90;89.20;;;;;;5019188;28;20260;-85
2021/08/22 03:27:09;;;;;;;6.05;3.70;;;19.90;89.50;;;;;;5022418;28;20233;-84
2021/08/22 03:29:35;;;;;;;3.75;3.45;;;19.90;89.40;;;;;;5017970;28;20190;-84
2021/08/22 03:32:01;;;;;;;3.97;3.67;;;20.10;89.00;;;;;;5017943;28;20220;-84
2021/08/22 03:34:27;;;;;;;4.30;3.90;;;20.20;88.30;;;;;;5012371;28;20189;-84
2021/08/22 03:36:52;;;;;;;5.35;4.45;;;20.30;87.30;;;;;;5021474;28;20552;-85
2021/08/22 03:39:18;;;;;;;4.50;3.88;;;20.20;87.30;;;;;;5022371;28;20202;-84
2021/08/22 03:41:44;;;;;;;4.55;4.15;;;20.30;87.50;;;;;;5005593;28;20241;-84
2021/08/22 03:44:09;;;;;;;5.65;4.03;;;20.40;87.30;;;;;;5022318;28;20661;-85
2021/08/22 03:46:35;;;;;;;4.20;3.90;;;20.30;87.00;;;;;;5022545;28;20226;-84
2021/08/22 03:49:01;;;;;;;5.93;3.92;;;20.40;87.40;;;;;;5014648;28;20193;-84
2021/08/22 03:51:27;;;;;;;5.20;3.83;;;20.40;87.40;;;;;;5021529;28;20361;-84
2021/08/22 03:53:53;;;;;;;5.63;3.97;;;20.50;86.60;;;;;;5015952;28;20183;-84
2021/08/22 03:56:18;;;;;;;4.93;4.20;;;20.60;86.20;;;;;;5012996;28;20193;-84
2021/08/22 03:58:44;;;;;;;7.13;4.35;;;20.70;85.20;;;;;;5029823;28;20199;-84
2021/08/22 04:01:10;;;;;;;4.47;4.13;;;20.70;85.50;;;;;;5036225;28;20221;-85
2021/08/22 04:03:38;;;;;;;4.28;3.85;;;20.80;85.00;;;;;;5020219;28;20205;-84
2021/08/22 04:06:04;;;;;;;4.97;4.57;;;20.80;84.50;;;;;;5023478;28;20196;-84
2021/08/22 04:08:31;;;;;;;4.80;4.35;;;20.80;85.60;;;;;;5014246;28;20189;-84
2021/08/22 04:10:57;;;;;;;5.13;4.63;;;20.80;86.10;;;;;;5016115;28;20193;-84
2021/08/22 04:13:23;;;;;;;4.85;4.45;;;20.80;85.90;;;;;;5012058;28;20188;-85
2021/08/22 04:15:49;;;;;;;4.88;4.40;;;20.90;84.60;;;;;;5007608;28;20222;-84
2021/08/22 04:18:16;;;;;;;6.10;4.43;;;21.00;85.00;;;;;;5006180;28;20194;-84
2021/08/22 04:20:42;;;;;;;5.03;4.28;;;20.80;86.00;;;;;;5017457;28;20185;-84
2021/08/22 04:23:09;;;;;;;5.07;4.45;;;20.60;87.00;;;;;;5017041;28;20274;-84
2021/08/22 04:25:35;;;;;;;4.40;4.00;;;20.60;87.00;;;;;;5015402;28;20436;-84
2021/08/22 04:28:01;;;;;;;4.65;4.35;;;20.60;87.10;;;;;;5014656;28;20225;-84
2021/08/22 04:30:26;;;;;;;6.70;4.65;;;20.70;86.20;;;;;;5019785;28;20239;-84
2021/08/22 04:32:52;;;;;;;5.78;4.40;;;20.70;86.30;;;;;;5021050;28;20209;-85
2021/08/22 04:35:18;;;;;;;4.68;4.00;;;20.80;86.70;;;;;;5021970;28;20197;-83
2021/08/22 04:37:43;;;;;;;4.93;4.35;;;20.80;86.00;;;;;;5021874;28;20476;-84
2021/08/22 04:40:10;;;;;;;5.18;4.07;;;20.80;86.50;;;;;;5019012;28;20200;-85
2021/08/22 04:42:36;;;;;;;6.72;4.45;;;20.90;85.60;;;;;;5021572;28;20560;-85
2021/08/22 04:45:02;;;;;;;5.13;4.72;;;21.00;85.40;;;;;;5016020;28;20733;-84
2021/08/22 04:47:28;;;;;;;7.47;4.90;;;21.00;84.90;;;;;;5020236;28;20261;-85
2021/08/22 04:49:53;;;;;;;5.53;5.03;;;21.00;86.10;;;;;;5012358;28;20186;-84
2021/08/22 04:52:19;;;;;;;4.70;4.30;;;21.00;85.80;;;;;;5024337;28;20683;-85
2021/08/22 04:54:45;;;;;;;5.53;5.00;;;21.10;85.30;;;;;;5025631;28;20189;-85
2021/08/22 04:57:10;;;;;;;5.93;4.68;;;21.10;85.00;;;;;;5020722;28;20220;-85
2021/08/22 04:59:36;;;;;;;7.82;4.80;;;21.10;84.80;;;;;;5020917;28;20286;-85
2021/08/22 05:02:04;;;;;;;5.95;5.22;;;21.10;85.50;;;;;;5019281;28;20231;-84
2021/08/22 05:04:30;;;;;;;5.80;4.45;;;21.00;86.10;;;;;;5021359;28;20203;-84
2021/08/22 05:06:56;;;;;;;6.82;4.88;;;20.80;86.60;;;;;;5014158;28;20213;-84
2021/08/22 05:09:21;;;;;;;5.75;4.93;;;20.80;86.80;;;;;;5017820;28;20753;-84
2021/08/22 05:11:47;;;;;;;6.45;4.85;;;20.80;87.20;;;;;;5015703;28;20384;-85
2021/08/22 05:14:13;;;;;;;5.35;4.85;;;20.80;87.50;;;;;;5021566;28;20691;-83
2021/08/22 05:16:39;;;;;;;5.43;5.03;;;20.90;87.00;;;;;;5020424;28;20587;-84
2021/08/22 05:19:04;;;;;;;6.05;4.97;;;20.80;88.20;;;;;;5018842;28;20198;-85
2021/08/22 05:21:30;;;;;;;6.95;5.03;;;20.80;88.10;;;;;;5019674;28;20287;-85
2021/08/22 05:23:56;;;;;;;5.55;5.05;;;20.70;88.40;;;;;;5034158;28;20195;-85
2021/08/22 05:26:21;;;;;;;5.95;5.35;;;20.50;89.20;;;;;;5018124;28;20330;-85
2021/08/22 05:28:47;;;;;;;5.90;5.30;;;20.50;89.70;;;;;;5022188;28;20517;-85
2021/08/22 05:31:13;;;;;;;5.63;5.00;;;20.40;90.00;;;;;;5015649;28;20187;-84
2021/08/22 05:33:38;;;;;;;6.03;5.35;;;20.40;91.00;;;;;;5021151;28;20571;-84
2021/08/22 05:36:21;;;;;;;6.45;5.72;;;20.40;90.50;;;;;;5021547;28;20192;-84
2021/08/22 05:38:48;;;;;;;5.75;5.22;;;20.50;90.10;;;;;;5022986;28;20216;-84
2021/08/22 05:41:14;;;;;;;6.38;5.50;;;20.40;90.70;;;;;;5019412;28;20200;-84
2021/08/22 05:43:40;;;;;;;6.05;5.45;;;20.50;91.00;;;;;;5022581;28;20188;-84
2021/08/22 05:46:06;;;;;;;6.13;5.22;;;20.50;90.50;;;;;;5021877;28;20186;-84
2021/08/22 05:48:33;;;;;;;8.63;5.07;;;20.50;90.50;;;;;;5023217;28;20526;-85
2021/08/22 05:51:02;;;;;;;9.93;5.95;;;20.30;91.50;;;;;;5021614;28;20274;-85
2021/08/22 05:53:28;;;;;;;5.97;5.20;;;20.10;93.20;;;;;;5018720;28;20184;-84
2021/08/22 05:55:58;;;;;;;7.10;5.65;;;20.00;93.90;;;;;;5018054;28;20229;-84
2021/08/22 05:58:24;;;;;;;6.60;5.70;;;20.10;94.00;;;;;;5018640;28;20193;-84
2021/08/22 06:00:50;;;;;;;8.95;6.55;;;20.10;93.80;;;;;;5018596;28;20213;-84
2021/08/22 06:03:16;;;;;;;6.85;6.15;;;20.00;94.40;;;;;;5033466;28;20693;-84
2021/08/22 06:05:42;;;;;;;7.55;6.45;;;20.00;94.40;;;;;;5013720;28;20192;-84
2021/08/22 06:08:07;;;;;;;6.75;6.13;;;20.10;94.30;;;;;;5016917;28;20236;-83
2021/08/22 06:10:33;;;;;;;8.43;6.07;;;20.10;94.40;;;;;;5018688;28;20190;-83
2021/08/22 06:12:59;;;;;;;7.32;6.25;;;20.10;94.40;;;;;;5017387;28;20305;-86
2021/08/22 06:15:25;;;;;;;7.18;6.38;;;20.00;95.00;;;;;;5022744;28;20265;-86
2021/08/22 06:17:50;;;;;;;8.50;6.60;;;20.10;95.10;;;;;;5021334;28;20198;-85
2021/08/22 06:20:16;;;;;;;8.07;6.78;;;20.00;95.50;;;;;;5018360;28;20571;-85
2021/08/22 06:22:42;;;;;;;7.22;6.63;;;20.00;95.60;;;;;;5022448;28;20213;-86
2021/08/22 06:25:08;;;;;;;7.20;6.25;;;20.00;96.40;;;;;;5015917;28;20190;-86
2021/08/22 06:27:33;;;;;;;9.80;6.95;;;20.00;96.30;;;;;;5018980;28;20210;-85
2021/08/22 06:30:00;;;;;;;8.50;6.68;;;20.10;95.70;;;;;;5047139;28;20185;-86
2021/08/22 06:32:26;;;;;;;8.88;6.78;;;20.10;95.90;;;;;;5020006;28;20347;-85
2021/08/22 06:34:52;;;;;;;7.97;7.20;;;20.10;95.90;;;;;;5017278;28;20500;-83
2021/08/22 06:37:18;;;;;;;8.60;6.78;;;20.10;95.70;;;;;;5026317;28;20330;-85
2021/08/22 06:39:47;;;;;;;7.75;7.05;;;20.20;95.90;;;;;;5020327;28;20292;-86
2021/08/22 06:42:14;;;;;;;8.27;7.47;;;20.20;95.60;;;;;;5010026;28;20224;-85
2021/08/22 06:44:39;;;;;;;7.38;6.78;;;20.10;95.50;;;;;;5014114;28;20217;-84
2021/08/22 06:47:14;;;;;;;7.60;6.95;;;20.10;95.90;;;;;;5018488;28;20217;-84
2021/08/22 06:49:40;;;;;;;8.23;7.40;;;20.10;95.60;;;;;;5019387;28;20174;-84
2021/08/22 06:52:09;;;;;;;8.95;6.85;;;20.10;96.70;;;;;;5012215;28;20344;-85
2021/08/22 06:54:36;;;;;;;8.25;7.55;;;20.10;96.60;;;;;;5017791;28;20201;-85
2021/08/22 06:57:02;;;;;;;10.18;7.88;;;20.20;96.40;;;;;;5013608;28;20202;-84
2021/08/22 06:59:27;;;;;;;9.75;7.95;;;20.30;96.30;;;;;;5017834;28;20185;-85
2021/08/22 07:01:53;;;;;;;10.73;7.80;;;20.40;96.90;;;;;;5013777;28;20270;-85
2021/08/22 07:04:19;;;;;;;8.73;7.90;;;20.30;96.60;;;;;;5013840;28;20205;-85
2021/08/22 07:06:44;;;;;;;9.02;7.45;;;20.50;95.70;;;;;;5012492;28;20304;-85
2021/08/22 07:09:10;;;;;;;8.70;8.00;;;20.60;95.50;;;;;;5013694;28;20195;-86
2021/08/22 07:11:36;;;;;;;8.50;7.80;;;20.60;95.70;;;;;;5013525;28;20234;-85
2021/08/22 07:14:01;;;;;;;8.20;7.50;;;20.70;95.30;;;;;;5028378;28;20189;-88
2021/08/22 07:16:28;;;;;;;9.88;8.82;;;20.70;95.80;;;;;;5035370;28;20193;-86
2021/08/22 07:18:54;;;;;;;8.82;7.72;;;20.60;96.50;;;;;;5029716;28;20683;-86
2021/08/22 07:21:20;;;;;;;8.63;7.93;;;20.70;96.30;;;;;;5039891;28;20248;-86
2021/08/22 07:23:46;;;;;;;8.90;8.02;;;20.70;96.10;;;;;;5032597;28;20185;-87
2021/08/22 07:26:12;;;;;;;10.00;9.10;;;20.80;95.80;;;;;;5026186;28;20182;-86
2021/08/22 07:28:38;;;;;;;10.45;8.75;;;20.90;95.50;;;;;;5036327;28;20332;-86
2021/08/22 07:31:05;;;;;;;8.60;7.80;;;20.90;95.00;;;;;;5024156;28;20220;-86
2021/08/22 07:33:35;;;;;;;9.63;8.68;;;21.00;94.90;;;;;;5001929;28;20193;-85
2021/08/22 07:36:01;;;;;;;9.27;8.43;;;21.20;93.90;;;;;;5013728;28;20190;-85
2021/08/22 07:38:27;;;;;;;9.75;8.60;;;21.10;94.40;;;;;;5021339;28;20240;-83
2021/08/22 07:40:54;;;;;;;9.70;8.70;;;21.00;95.00;;;;;;5010887;28;20191;-87
2021/08/22 07:43:19;;;;;;;10.82;7.95;;;21.00;94.20;;;;;;5017140;28;20301;-85
2021/08/22 07:45:45;;;;;;;9.27;8.48;;;21.10;95.20;;;;;;5015817;28;20219;-84
2021/08/22 07:48:11;;;;;;;9.80;9.00;;;21.20;93.90;;;;;;5015460;28;20702;-85
2021/08/22 07:50:37;;;;;;;9.18;7.88;;;21.00;93.10;;;;;;5022893;28;20191;-85
2021/08/22 07:53:03;;;;;;;10.15;9.07;;;21.10;93.10;;;;;;5021316;28;20257;-86
2021/08/22 07:55:28;;;;;;;9.52;8.30;;;21.10;93.20;;;;;;5016811;28;20330;-85
2021/08/22 07:57:54;;;;;;;9.32;8.52;;;21.20;92.40;;;;;;5012611;28;20245;-86
2021/08/22 08:00:21;;;;;;;8.90;8.10;;;21.40;92.40;;;;;;5016937;28;20205;-85
2021/08/22 08:02:46;;;;;;;10.07;8.95;;;21.40;92.10;;;;;;5011752;28;20223;-85
2021/08/22 08:05:13;;;;;;;9.05;8.18;;;21.40;90.90;;;;;;5016861;28;20192;-85
2021/08/22 08:07:38;;;;;;;10.40;9.27;;;21.40;91.30;;;;;;5016891;28;20248;-84
2021/08/22 08:10:06;;;;;;;9.90;9.00;;;21.40;90.90;;;;;;5013830;28;20189;-85
2021/08/22 08:12:32;;;;;;;9.45;8.35;;;21.40;91.40;;;;;;5008733;28;20603;-85
2021/08/22 08:14:58;;;;;;;9.63;8.77;;;21.70;90.80;;;;;;5000434;28;20255;-85
2021/08/22 08:17:24;;;;;;;9.98;9.07;;;21.60;89.20;;;;;;5014097;28;20217;-85
2021/08/22 08:19:50;;;;;;;9.35;8.40;;;21.60;90.10;;;;;;5012650;28;20534;-85
2021/08/22 08:22:16;;;;;;;9.95;8.82;;;21.80;88.50;;;;;;5015140;28;20218;-86
2021/08/22 08:24:42;;;;;;;8.98;8.20;;;21.80;88.20;;;;;;5022766;28;20203;-85
2021/08/22 08:27:08;;;;;;;9.73;8.50;;;21.90;88.40;;;;;;5012814;28;20304;-85
2021/08/22 08:29:34;;;;;;;9.25;8.40;;;21.90;89.00;;;;;;5019828;28;20756;-85
2021/08/22 08:31:59;;;;;;;9.60;8.70;;;21.90;87.80;;;;;;5004930;28;20215;-85
2021/08/22 08:34:25;;;;;;;9.73;8.75;;;22.00;88.00;;;;;;5011672;28;20254;-85
2021/08/22 08:36:51;;;;;;;9.43;8.45;;;21.90;89.20;;;;;;5014724;28;20681;-84
2021/08/22 08:39:17;;;;;;;9.18;8.43;;;22.10;86.60;;;;;;5013380;28;20201;-85
2021/08/22 08:41:42;;;;;;;9.10;8.40;;;22.00;87.70;;;;;;5015014;28;20224;-85
2021/08/22 08:44:12;;;;;;;9.00;8.20;;;22.10;87.30;;;;;;5019096;28;20236;-86
2021/08/22 08:46:52;;;;;;;9.27;8.43;;;22.10;86.40;;;;;;5018130;28;20280;-86
2021/08/22 08:49:32;;;;;;;9.07;8.27;;;21.90;87.50;;;;;;5009819;28;20678;-85
2021/08/22 08:52:15;;;;;;;9.57;8.65;;;21.90;87.60;;;;;;5016444;28;20277;-85
2021/08/22 08:54:47;;;;;;;8.35;7.68;;;21.80;87.10;;;;;;5000650;28;20189;-86
2021/08/22 08:57:14;;;;;;;8.82;8.02;;;21.70;88.30;;;;;;5014228;28;20288;-86
2021/08/22 08:59:41;;;;;;;9.45;8.60;;;21.60;88.40;;;;;;5006615;28;20200;-86
2021/08/22 09:02:06;;;;;;;10.73;8.43;;;21.60;90.60;;;;;;5014023;28;20220;-86
2021/08/22 09:04:33;;;;;;;9.30;8.43;;;21.60;90.30;;;;;;5018165;28;20201;-86
2021/08/22 09:07:21;;;;;;;9.18;8.27;;;21.80;89.60;;;;;;5014056;28;20317;-85
2021/08/22 09:10:20;;;;;;;10.80;8.02;;;21.80;91.00;;;;;;5012144;28;20239;-85
2021/08/22 09:13:24;;;;;;;9.80;7.90;;;21.30;92.50;;;;;;5011570;28;20217;-85
2021/08/22 09:16:27;;;;;;;8.82;6.70;;;20.80;94.70;;;;;;5010763;28;20677;-85
2021/08/22 09:18:58;;;;;;;6.90;5.65;;;20.60;94.00;;;;;;5008513;28;20193;-86
2021/08/22 09:21:49;;;;;;;6.50;5.90;;;20.60;93.10;;;;;;5001462;28;20209;-86
2021/08/22 09:24:52;;;;;;;6.95;5.25;;;20.50;93.00;;;;;;5008138;28;20222;-86
2021/08/22 09:27:42;;;;;;;5.40;4.90;;;20.40;91.50;;;;;;5012132;28;20318;-86
2021/08/22 09:30:45;;;;;;;5.03;4.20;;;20.10;92.90;;;;;;5018287;28;20251;-86
2021/08/22 09:33:45;;;;;;;5.05;4.35;;;19.80;92.50;;;;;;5017054;28;20280;-86
2021/08/22 09:36:55;;;;;;;5.40;4.03;;;19.60;93.80;;;;;;5014591;28;20186;-85
2021/08/22 09:39:58;;;;;;;6.82;5.93;;;19.40;95.40;;;;;;5006181;28;20201;-86
2021/08/22 09:43:02;;;;;;;5.85;5.35;;;19.30;97.80;;;;;;5009204;28;20568;-85
2021/08/22 09:46:05;;;;;;;4.65;4.15;;;19.20;96.10;;;;;;5011505;28;20615;-86
2021/08/22 09:49:08;;;;;;;4.47;4.07;;;19.30;97.20;;;;;;5009965;28;20729;-86
2021/08/22 09:52:20;;;;;;;5.05;4.43;;;19.60;97.10;;;;;;5011454;28;20679;-86
2021/08/22 09:55:23;;;;;;;4.20;3.80;;;19.70;96.10;;;;;;5009522;28;20197;-86
2021/08/22 09:58:26;;;;;;;4.68;4.28;;;19.70;94.20;;;;;;5009072;28;20190;-86
2021/08/22 10:01:16;;;;;;;4.30;3.90;;;19.90;95.30;;;;;;4999892;28;20270;-86
2021/08/22 10:04:01;;;;;;;4.90;4.13;;;20.10;94.10;;;;;;5003175;28;20201;-86
2021/08/22 10:06:43;;;;;;;4.28;3.88;;;20.10;92.80;;;;;;5005561;28;20210;-86
2021/08/22 10:09:23;;;;;;;4.30;3.88;;;20.20;93.70;;;;;;5022817;28;20194;-87
2021/08/22 10:11:56;;;;;;;4.63;3.83;;;20.40;92.80;;;;;;5020740;28;20216;-87
2021/08/22 10:14:25;;;;;;;4.03;3.72;;;20.40;90.90;;;;;;5031890;28;20633;-87
2021/08/22 10:16:52;;;;;;;4.57;4.00;;;20.50;89.90;;;;;;5016239;28;20200;-87
2021/08/22 10:19:28;;;;;;;4.07;3.78;;;20.60;91.50;;;;;;5015213;28;20285;-86
2021/08/22 10:22:09;;;;;;;5.03;4.55;;;20.70;89.40;;;;;;5034145;28;20215;-87
2021/08/22 10:24:43;;;;;;;4.25;3.92;;;20.80;90.90;;;;;;5024770;28;20287;-87
2021/08/22 10:27:11;;;;;;;4.88;4.47;;;20.90;89.90;;;;;;5019182;28;20222;-87
2021/08/22 10:29:49;;;;;;;4.40;4.00;;;20.90;90.00;;;;;;5009397;28;20263;-87
2021/08/22 10:32:16;;;;;;;4.80;4.30;;;21.00;90.00;;;;;;5009801;28;20209;-87
2021/08/22 10:34:43;;;;;;;5.30;4.10;;;20.90;90.90;;;;;;5010045;28;20202;-87
2021/08/22 10:37:29;;;;;;;4.95;4.55;;;21.00;91.00;;;;;;5005382;28;20659;-86
2021/08/22 10:39:58;;;;;;;7.05;5.15;;;20.90;91.30;;;;;;5033614;28;20271;-87
2021/08/22 10:42:26;;;;;;;5.82;4.65;;;20.70;93.10;;;;;;5017471;28;20400;-87
2021/08/22 10:44:53;;;;;;;5.93;5.43;;;20.40;92.90;;;;;;5007513;28;20193;-86
2021/08/22 10:47:21;;;;;;;5.25;4.85;;;20.30;94.20;;;;;;5017169;28;20225;-87
2021/08/22 10:49:50;;;;;;;4.80;4.35;;;20.20;94.70;;;;;;5015848;28;20738;-86
2021/08/22 10:52:32;;;;;;;5.32;4.85;;;20.40;94.30;;;;;;5012281;28;20223;-86
2021/08/22 10:55:13;;;;;;;5.15;4.50;;;20.30;94.00;;;;;;5031386;28;20667;-87
2021/08/22 10:57:42;;;;;;;6.57;5.80;;;20.30;94.00;;;;;;5010575;28;20249;-87
2021/08/22 11:00:28;;;;;;;6.00;5.40;;;20.10;95.60;;;;;;5012563;28;20189;-87
2021/08/22 11:02:53;;;;;;;6.78;5.25;;;19.90;96.50;;;;;;5014375;28;20241;-86
2021/08/22 11:05:34;;;;;;;5.82;5.15;;;20.10;97.30;;;;;;5011673;28;20198;-86
2021/08/22 11:08:18;;;;;;;5.72;5.22;;;20.30;96.60;;;;;;5013823;28;20677;-87
2021/08/22 11:11:05;;;;;;;5.82;5.32;;;20.40;95.50;;;;;;5013970;28;20187;-87
2021/08/22 11:13:37;;;;;;;6.15;5.57;;;20.40;95.20;;;;;;5009687;28;20197;-86
2021/08/22 11:16:08;;;;;;;6.43;5.72;;;20.30;96.40;;;;;;5007872;28;20192;-87
2021/08/22 11:18:35;;;;;;;6.57;5.68;;;20.50;96.90;;;;;;5008574;28;20316;-86
2021/08/22 11:21:01;;;;;;;6.25;5.65;;;20.60;96.80;;;;;;5009077;28;20195;-87
2021/08/22 11:23:27;;;;;;;7.03;6.35;;;20.50;96.60;;;;;;5014863;28;20222;-87
2021/08/22 11:26:09;;;;;;;6.70;6.13;;;20.60;97.70;;;;;;5010086;28;20182;-86
2021/08/22 11:28:36;;;;;;;6.93;6.25;;;20.70;97.40;;;;;;5005775;28;20228;-87
2021/08/22 11:31:12;;;;;;;7.07;6.57;;;20.80;97.20;;;;;;5011004;28;20187;-86
2021/08/22 11:33:38;;;;;;;7.57;6.78;;;20.80;96.80;;;;;;5011048;28;20660;-87
2021/08/22 11:36:04;;;;;;;8.23;7.53;;;20.70;97.20;;;;;;5015480;28;20210;-87
2021/08/22 11:38:31;;;;;;;11.43;8.65;;;20.70;95.90;;;;;;5013860;28;20220;-87
2021/08/22 11:41:04;;;;;;;8.90;8.13;;;20.60;97.80;;;;;;5030245;28;20192;-86
2021/08/22 11:43:30;;;;;;;9.75;8.95;;;20.70;96.70;;;;;;5009898;28;20302;-87
2021/08/22 11:45:56;;;;;;;9.52;8.73;;;20.50;98.70;;;;;;5027940;28;20190;-87
2021/08/22 11:48:24;;;;;;;9.88;8.98;;;20.60;98.60;;;;;;5014492;28;20214;-87
2021/08/22 11:50:51;;;;;;;9.70;8.90;;;20.60;97.60;;;;;;5015685;28;20190;-86
2021/08/22 11:53:19;;;;;;;9.23;8.43;;;20.70;96.00;;;;;;5012158;28;20233;-86
2021/08/22 11:55:45;;;;;;;9.13;8.43;;;20.60;96.90;;;;;;5012930;28;20195;-86
2021/08/22 11:58:14;;;;;;;9.73;8.93;;;20.50;97.50;;;;;;5009947;28;20217;-87
2021/08/22 12:00:44;;;;;;;8.63;7.93;;;20.60;99.00;;;;;;5009044;28;20502;-87
2021/08/22 12:03:17;;;;;;;9.25;8.35;;;20.50;96.90;;;;;;5010451;28;20239;-87
2021/08/22 12:06:07;;;;;;;9.88;8.90;;;20.40;96.30;;;;;;5021591;28;20253;-87
2021/08/22 12:08:34;;;;;;;9.27;8.48;;;20.30;98.70;;;;;;5016075;28;20198;-87
2021/08/22 12:11:16;;;;;;;10.23;9.32;;;20.40;97.90;;;;;;5010255;28;20189;-86
2021/08/22 12:13:44;;;;;;;9.30;8.50;;;20.30;97.80;;;;;;5017473;28;20679;-85
2021/08/22 12:16:22;;;;;;;8.52;7.72;;;20.20;96.20;;;;;;5014325;28;20185;-86
2021/08/22 12:18:47;;;;;;;8.98;8.27;;;20.20;97.30;;;;;;5015511;28;20190;-86
2021/08/22 12:21:15;;;;;;;8.45;7.60;;;20.30;97.00;;;;;;5014921;28;20265;-86
2021/08/22 12:23:44;;;;;;;8.45;7.65;;;20.20;98.10;;;;;;5015276;28;20189;-86
2021/08/22 12:26:16;;;;;;;8.18;7.40;;;20.20;97.70;;;;;;5011237;28;20524;-86
2021/08/22 12:28:43;;;;;;;7.32;6.72;;;20.10;96.90;;;;;;5009130;28;20201;-86
2021/08/22 12:31:11;;;;;;;7.32;6.72;;;20.20;95.90;;;;;;5009225;28;20224;-86
2021/08/22 12:33:39;;;;;;;7.32;6.57;;;20.30;99.40;;;;;;5014690;28;20248;-86
2021/08/22 12:36:08;;;;;;;6.57;6.07;;;20.30;94.00;;;;;;5008718;28;20201;-86
2021/08/22 12:38:47;;;;;;;6.90;6.30;;;20.30;95.30;;;;;;5011191;28;20189;-86
2021/08/22 12:41:24;;;;;;;7.68;7.00;;;20.20;95.50;;;;;;5020463;28;20180;-86
2021/08/22 12:43:51;;;;;;;6.60;6.00;;;20.40;94.80;;;;;;5010333;28;20201;-86
2021/08/22 12:46:16;;;;;;;6.60;6.10;;;20.60;93.80;;;;;;5011749;28;20205;-86
2021/08/22 12:48:44;;;;;;;6.22;5.72;;;20.70;94.60;;;;;;5010094;28;20657;-86
2021/08/22 12:51:10;;;;;;;7.15;6.55;;;20.70;93.80;;;;;;5006095;28;20193;-86
2021/08/22 12:53:36;;;;;;;6.40;5.80;;;20.60;95.00;;;;;;5009551;28;20424;-86
2021/08/22 12:56:02;;;;;;;7.38;6.70;;;20.60;94.20;;;;;;5011564;28;20236;-87
2021/08/22 12:58:28;;;;;;;6.75;6.15;;;20.70;94.70;;;;;;5010495;28;20292;-86